ADDS METAR Data INFO
IDs: Format: Raw Decoded Include TAF

Data at: 1011 UTC 14 Dec 2017

KCWF 140955Z AUTO 00000KT 3SM BR CLR 04/03 A2996 RMK AO2 T00350028
KCWF 140935Z AUTO 00000KT 10SM CLR 04/03 A2996 RMK AO2 T00370030
KCWF 140915Z AUTO 00000KT 10SM CLR 04/03 A2997 RMK AO2 T00430032
KCWF 140855Z AUTO 00000KT 10SM CLR 04/03 A2997 RMK AO2 T00440034
KCWF 140835Z AUTO 00000KT 10SM CLR 04/03 A2996 RMK AO2 T00440032
KCWF 140815Z AUTO 00000KT 10SM CLR 05/03 A2997 RMK AO2 T00450027
KCWF 140755Z AUTO 00000KT 10SM CLR 05/03 A2997 RMK AO2 T00470033
KCWF 140735Z AUTO 00000KT 10SM CLR 05/04 A2997 RMK AO2 T00530042
KCWF 140715Z AUTO 00000KT 10SM CLR 05/04 A2997 RMK AO2 T00520041
KCWF 140655Z AUTO 00000KT 10SM CLR 06/04 A2997 RMK AO2 T00570042
KCWF 140635Z AUTO 00000KT 10SM CLR 06/04 A2997 RMK AO2 T00600042
KCWF 140615Z AUTO 00000KT 10SM CLR 06/04 A2997 RMK AO2 T00570041
KCWF 140555Z AUTO 00000KT 10SM CLR 06/04 A2997 RMK AO2 T00570040 10096 20056 401571005
KCWF 140535Z AUTO 00000KT 10SM CLR 06/05 A2997 RMK AO2 T00600050
KCWF 140515Z AUTO 14003KT 10SM CLR 06/05 A2998 RMK AO2 T00620050
KCWF 140455Z AUTO 00000KT 10SM CLR 06/04 A2999 RMK AO2 T00620044
KCWF 140435Z AUTO 00000KT 10SM CLR 07/04 A2999 RMK AO2 T00680042
KCWF 140415Z AUTO 24003KT 10SM CLR 08/05 A3000 RMK AO2 T00830053
KCWF 140355Z AUTO 23003KT 10SM CLR 08/06 A3000 RMK AO2 T00850058
KCWF 140345Z 22003KT 10SM SKC 08/06 A2999 RMK LAST
KCWF 140335Z AUTO 23004KT 10SM CLR 08/06 A3000 RMK AO2 T00830056
KCWF 140315Z AUTO 22004KT 10SM CLR 08/05 A3000 RMK AO2 T00830054
KCWF 131055Z AUTO 00000KT 10SM CLR 00/M01 A3017 RMK AO2 T00001006
KCWF 131035Z AUTO 00000KT 10SM CLR 01/00 A3018 RMK AO2 T00060000
KCWF 131015Z AUTO 00000KT 10SM CLR 00/M00 A3018 RMK AO2 T00051001
KCWF 130955Z AUTO 00000KT 10SM CLR 01/00 A3018 RMK AO2 T00100000
KCWF 130935Z AUTO 00000KT 10SM CLR 01/00 A3019 RMK AO2 T00070000
KCWF 130915Z AUTO 00000KT 10SM CLR 01/00 A3019 RMK AO2 T00100000
KCWF 130855Z AUTO 00000KT 10SM CLR 01/00 A3019 RMK AO2 T00150004
KCWF 130835Z AUTO 00000KT 10SM CLR 02/00 A3019 RMK AO2 T00150005
KCWF 130815Z AUTO 00000KT 10SM CLR 01/00 A3020 RMK AO2 T00130000
KCWF 130755Z AUTO 00000KT 10SM CLR 02/00 A3020 RMK AO2 T00180003
KCWF 130735Z AUTO 30003KT 10SM CLR 02/00 A3020 RMK AO2 T00200003
KCWF 130715Z AUTO 00000KT 10SM CLR 01/M01 A3020 RMK AO2 T00121010
KCWF 130655Z AUTO 00000KT 10SM CLR 02/00 A3019 RMK AO2 T00240000
KCWF 130635Z AUTO 00000KT 10SM CLR 03/00 A3020 RMK AO2 T00300005
KCWF 130615Z AUTO 00000KT 10SM CLR 03/00 A3021 RMK AO2 T00330002
KCWF 130555Z AUTO 32003KT 10SM CLR 04/01 A3021 RMK AO2 T00400006 10100 20040 401810040
KCWF 130535Z AUTO 34003KT 10SM CLR 05/00 A3021 RMK AO2 T00470001
KCWF 130515Z AUTO 34003KT 10SM CLR 05/00 A3022 RMK AO2 T00520000
KCWF 130455Z AUTO 35004KT 10SM CLR 06/00 A3022 RMK AO2 T00620003
KCWF 130435Z AUTO 36004KT 10SM CLR 05/00 A3022 RMK AO2 T00500005
KCWF 130415Z AUTO 35004KT 10SM CLR 06/00 A3022 RMK AO2 T00550000
KCWF 130355Z AUTO 36005KT 10SM CLR 05/01 A3022 RMK AO2 T00520006
KCWF 130335Z AUTO 32003KT 10SM CLR 05/01 A3023 RMK AO2 T00530007
KCWF 130320Z AUTO 34005KT 10SM CLR 06/01 A3022 RMK AO2 T00580006